Terminal Aerodrome Forecast
Issued by NWS

Home | Current Version | Previous Version | Text Only | Print | Product List | Glossary On
Versions: 1 2 3 4 5 6 7 8 9 10 11 12
000
FTUS43 KDTX 251729
TAFDET
TAF
KDET 251729Z 2518/2618 22012KT P6SM SCT060 BKN250
     FM260100 16005KT P6SM BKN060 OVC150
     FM260700 18005KT 5SM -SHRA BR OVC060
     FM261200 20008KT P6SM SCT035 OVC060
     FM261500 20010KT P6SM BKN070=

USA.gov is the U.S. government's official web portal to all federal, state and local government web resources and services.